sensor_id;sensor_type;location;lat;lon;timestamp;P1;durP1;ratioP1;P2;durP2;ratioP2
17814;SDS011;9031;50.974;11.330;2023-01-16T00:00:49;0.80;;;0.80;;
17814;SDS011;9031;50.974;11.330;2023-01-16T00:03:15;0.90;;;0.90;;
17814;SDS011;9031;50.974;11.330;2023-01-16T00:05:40;0.60;;;0.60;;
17814;SDS011;9031;50.974;11.330;2023-01-16T00:08:07;0.93;;;0.93;;
17814;SDS011;9031;50.974;11.330;2023-01-16T00:10:33;0.80;;;0.80;;
17814;SDS011;9031;50.974;11.330;2023-01-16T00:12:58;1.03;;;1.03;;
17814;SDS011;9031;50.974;11.330;2023-01-16T00:15:24;0.90;;;0.90;;
17814;SDS011;9031;50.974;11.330;2023-01-16T00:17:49;0.60;;;0.60;;
17814;SDS011;9031;50.974;11.330;2023-01-16T00:20:15;0.90;;;0.90;;
17814;SDS011;9031;50.974;11.330;2023-01-16T00:22:41;0.80;;;0.80;;
17814;SDS011;9031;50.974;11.330;2023-01-16T00:25:07;0.80;;;0.80;;
17814;SDS011;9031;50.974;11.330;2023-01-16T00:27:33;0.90;;;0.90;;
17814;SDS011;9031;50.974;11.330;2023-01-16T00:29:59;0.97;;;0.97;;
17814;SDS011;9031;50.974;11.330;2023-01-16T00:32:24;0.73;;;0.73;;
17814;SDS011;9031;50.974;11.330;2023-01-16T00:34:50;0.80;;;0.80;;
17814;SDS011;9031;50.974;11.330;2023-01-16T00:37:15;0.80;;;0.80;;
17814;SDS011;9031;50.974;11.330;2023-01-16T00:39:41;0.90;;;0.90;;
17814;SDS011;9031;50.974;11.330;2023-01-16T00:42:06;1.00;;;1.00;;
17814;SDS011;9031;50.974;11.330;2023-01-16T00:44:32;0.90;;;0.90;;
17814;SDS011;9031;50.974;11.330;2023-01-16T00:46:57;0.97;;;0.97;;
17814;SDS011;9031;50.974;11.330;2023-01-16T00:49:23;1.23;;;1.23;;
17814;SDS011;9031;50.974;11.330;2023-01-16T00:51:48;0.90;;;0.90;;
17814;SDS011;9031;50.974;11.330;2023-01-16T00:54:14;0.87;;;0.87;;
17814;SDS011;9031;50.974;11.330;2023-01-16T00:56:39;1.00;;;1.00;;
17814;SDS011;9031;50.974;11.330;2023-01-16T00:59:05;0.80;;;0.80;;
17814;SDS011;9031;50.974;11.330;2023-01-16T01:01:30;0.70;;;0.70;;
17814;SDS011;9031;50.974;11.330;2023-01-16T01:03:57;0.70;;;0.70;;
17814;SDS011;9031;50.974;11.330;2023-01-16T01:06:24;0.83;;;0.83;;
17814;SDS011;9031;50.974;11.330;2023-01-16T01:08:49;2.07;;;1.87;;
17814;SDS011;9031;50.974;11.330;2023-01-16T01:11:15;0.80;;;0.80;;
17814;SDS011;9031;50.974;11.330;2023-01-16T01:13:41;1.00;;;1.00;;
17814;SDS011;9031;50.974;11.330;2023-01-16T01:16:07;1.00;;;1.00;;
17814;SDS011;9031;50.974;11.330;2023-01-16T01:18:32;0.87;;;0.87;;
17814;SDS011;9031;50.974;11.330;2023-01-16T01:20:58;2.10;;;2.00;;
17814;SDS011;9031;50.974;11.330;2023-01-16T01:23:24;0.90;;;0.90;;
17814;SDS011;9031;50.974;11.330;2023-01-16T01:25:49;1.00;;;1.00;;
17814;SDS011;9031;50.974;11.330;2023-01-16T01:28:15;1.00;;;1.00;;
17814;SDS011;9031;50.974;11.330;2023-01-16T01:30:41;1.00;;;1.00;;
17814;SDS011;9031;50.974;11.330;2023-01-16T01:33:06;0.70;;;0.70;;
17814;SDS011;9031;50.974;11.330;2023-01-16T01:35:33;1.00;;;1.00;;
17814;SDS011;9031;50.974;11.330;2023-01-16T01:37:59;0.90;;;0.90;;
17814;SDS011;9031;50.974;11.330;2023-01-16T01:40:24;1.10;;;1.10;;
17814;SDS011;9031;50.974;11.330;2023-01-16T01:42:50;0.80;;;0.80;;
17814;SDS011;9031;50.974;11.330;2023-01-16T01:45:28;0.80;;;0.80;;
17814;SDS011;9031;50.974;11.330;2023-01-16T01:48:07;0.80;;;0.80;;
17814;SDS011;9031;50.974;11.330;2023-01-16T01:56:12;1.60;;;1.50;;
17814;SDS011;9031;50.974;11.330;2023-01-16T01:58:48;0.93;;;0.93;;
17814;SDS011;9031;50.974;11.330;2023-01-16T02:01:17;1.00;;;1.00;;
17814;SDS011;9031;50.974;11.330;2023-01-16T02:03:46;1.20;;;1.20;;
17814;SDS011;9031;50.974;11.330;2023-01-16T02:06:25;0.90;;;0.90;;
17814;SDS011;9031;50.974;11.330;2023-01-16T02:08:57;0.80;;;0.80;;
17814;SDS011;9031;50.974;11.330;2023-01-16T02:12:06;1.00;;;1.00;;
17814;SDS011;9031;50.974;11.330;2023-01-16T02:14:26;1.00;;;1.00;;
17814;SDS011;9031;50.974;11.330;2023-01-16T02:16:56;0.90;;;0.90;;
17814;SDS011;9031;50.974;11.330;2023-01-16T02:19:52;0.80;;;0.80;;
17814;SDS011;9031;50.974;11.330;2023-01-16T02:25:58;1.00;;;1.00;;
17814;SDS011;9031;50.974;11.330;2023-01-16T02:31:29;0.90;;;0.90;;
17814;SDS011;9031;50.974;11.330;2023-01-16T02:34:09;1.00;;;1.00;;
17814;SDS011;9031;50.974;11.330;2023-01-16T02:36:50;0.80;;;0.80;;
17814;SDS011;9031;50.974;11.330;2023-01-16T02:39:25;0.83;;;0.83;;
17814;SDS011;9031;50.974;11.330;2023-01-16T02:45:39;1.07;;;1.07;;
17814;SDS011;9031;50.974;11.330;2023-01-16T02:48:11;1.10;;;1.10;;
17814;SDS011;9031;50.974;11.330;2023-01-16T02:50:54;1.00;;;1.00;;
17814;SDS011;9031;50.974;11.330;2023-01-16T02:56:07;1.00;;;1.00;;
17814;SDS011;9031;50.974;11.330;2023-01-16T02:58:36;1.10;;;1.10;;
17814;SDS011;9031;50.974;11.330;2023-01-16T03:01:05;0.90;;;0.90;;
17814;SDS011;9031;50.974;11.330;2023-01-16T03:03:36;1.00;;;1.00;;
17814;SDS011;9031;50.974;11.330;2023-01-16T03:06:16;1.10;;;1.10;;
17814;SDS011;9031;50.974;11.330;2023-01-16T03:14:33;0.90;;;0.90;;
17814;SDS011;9031;50.974;11.330;2023-01-16T03:17:24;1.10;;;1.10;;
17814;SDS011;9031;50.974;11.330;2023-01-16T03:20:16;0.90;;;0.90;;
17814;SDS011;9031;50.974;11.330;2023-01-16T03:23:13;0.90;;;0.90;;
17814;SDS011;9031;50.974;11.330;2023-01-16T03:25:45;1.20;;;1.20;;
17814;SDS011;9031;50.974;11.330;2023-01-16T03:28:33;1.10;;;1.10;;
17814;SDS011;9031;50.974;11.330;2023-01-16T03:31:13;0.97;;;0.97;;
17814;SDS011;9031;50.974;11.330;2023-01-16T03:36:46;0.87;;;0.87;;
17814;SDS011;9031;50.974;11.330;2023-01-16T03:39:21;1.00;;;1.00;;
17814;SDS011;9031;50.974;11.330;2023-01-16T03:41:50;0.70;;;0.70;;
17814;SDS011;9031;50.974;11.330;2023-01-16T03:44:23;1.00;;;1.00;;
17814;SDS011;9031;50.974;11.330;2023-01-16T03:46:54;1.17;;;1.17;;
17814;SDS011;9031;50.974;11.330;2023-01-16T03:49:24;1.03;;;1.03;;
17814;SDS011;9031;50.974;11.330;2023-01-16T03:51:55;1.20;;;1.20;;
17814;SDS011;9031;50.974;11.330;2023-01-16T03:57:27;1.07;;;1.07;;
17814;SDS011;9031;50.974;11.330;2023-01-16T03:59:53;1.00;;;1.00;;
17814;SDS011;9031;50.974;11.330;2023-01-16T04:02:40;0.90;;;0.90;;
17814;SDS011;9031;50.974;11.330;2023-01-16T04:05:18;0.80;;;0.80;;
17814;SDS011;9031;50.974;11.330;2023-01-16T04:07:56;1.00;;;1.00;;
17814;SDS011;9031;50.974;11.330;2023-01-16T04:10:30;1.00;;;1.00;;
17814;SDS011;9031;50.974;11.330;2023-01-16T04:12:59;0.90;;;0.90;;
17814;SDS011;9031;50.974;11.330;2023-01-16T04:15:35;1.00;;;1.00;;
17814;SDS011;9031;50.974;11.330;2023-01-16T04:18:04;1.27;;;1.27;;
17814;SDS011;9031;50.974;11.330;2023-01-16T04:20:30;0.90;;;0.90;;
17814;SDS011;9031;50.974;11.330;2023-01-16T04:22:56;0.90;;;0.90;;
17814;SDS011;9031;50.974;11.330;2023-01-16T04:25:22;1.00;;;1.00;;
17814;SDS011;9031;50.974;11.330;2023-01-16T04:27:48;0.90;;;0.90;;
17814;SDS011;9031;50.974;11.330;2023-01-16T04:30:13;1.00;;;1.00;;
17814;SDS011;9031;50.974;11.330;2023-01-16T04:32:40;0.93;;;0.93;;
17814;SDS011;9031;50.974;11.330;2023-01-16T04:35:06;1.17;;;1.17;;
17814;SDS011;9031;50.974;11.330;2023-01-16T04:37:32;1.20;;;1.20;;
17814;SDS011;9031;50.974;11.330;2023-01-16T04:39:58;1.00;;;1.00;;
17814;SDS011;9031;50.974;11.330;2023-01-16T04:42:24;0.90;;;0.90;;
17814;SDS011;9031;50.974;11.330;2023-01-16T04:44:50;1.10;;;1.10;;
17814;SDS011;9031;50.974;11.330;2023-01-16T04:47:16;1.00;;;1.00;;
17814;SDS011;9031;50.974;11.330;2023-01-16T04:49:41;0.90;;;0.90;;
17814;SDS011;9031;50.974;11.330;2023-01-16T04:52:07;1.00;;;1.00;;
17814;SDS011;9031;50.974;11.330;2023-01-16T04:54:33;1.33;;;1.33;;
17814;SDS011;9031;50.974;11.330;2023-01-16T04:56:58;0.90;;;0.90;;
17814;SDS011;9031;50.974;11.330;2023-01-16T04:59:25;1.20;;;1.20;;
17814;SDS011;9031;50.974;11.330;2023-01-16T05:01:51;0.93;;;0.93;;
17814;SDS011;9031;50.974;11.330;2023-01-16T05:04:17;1.10;;;1.10;;
17814;SDS011;9031;50.974;11.330;2023-01-16T05:06:43;1.07;;;1.07;;
17814;SDS011;9031;50.974;11.330;2023-01-16T05:09:08;1.10;;;1.10;;
17814;SDS011;9031;50.974;11.330;2023-01-16T05:11:34;1.10;;;1.10;;
17814;SDS011;9031;50.974;11.330;2023-01-16T05:14:00;0.97;;;0.97;;
17814;SDS011;9031;50.974;11.330;2023-01-16T05:16:26;1.10;;;1.10;;
17814;SDS011;9031;50.974;11.330;2023-01-16T05:18:52;0.90;;;0.90;;
17814;SDS011;9031;50.974;11.330;2023-01-16T05:21:18;0.93;;;0.93;;
17814;SDS011;9031;50.974;11.330;2023-01-16T05:23:43;1.10;;;1.10;;
17814;SDS011;9031;50.974;11.330;2023-01-16T05:26:09;0.77;;;0.77;;
17814;SDS011;9031;50.974;11.330;2023-01-16T05:28:35;1.20;;;1.20;;
17814;SDS011;9031;50.974;11.330;2023-01-16T05:31:01;1.20;;;1.20;;
17814;SDS011;9031;50.974;11.330;2023-01-16T05:33:26;1.00;;;1.00;;
17814;SDS011;9031;50.974;11.330;2023-01-16T05:35:52;0.90;;;0.90;;
17814;SDS011;9031;50.974;11.330;2023-01-16T05:38:18;1.10;;;1.10;;
17814;SDS011;9031;50.974;11.330;2023-01-16T05:40:44;1.00;;;1.00;;
17814;SDS011;9031;50.974;11.330;2023-01-16T05:43:10;0.83;;;0.83;;
17814;SDS011;9031;50.974;11.330;2023-01-16T05:45:36;0.80;;;0.80;;
17814;SDS011;9031;50.974;11.330;2023-01-16T05:48:02;1.10;;;1.10;;
17814;SDS011;9031;50.974;11.330;2023-01-16T05:50:27;0.77;;;0.77;;
17814;SDS011;9031;50.974;11.330;2023-01-16T05:52:53;1.00;;;1.00;;
17814;SDS011;9031;50.974;11.330;2023-01-16T05:55:19;1.10;;;1.10;;
17814;SDS011;9031;50.974;11.330;2023-01-16T05:57:44;1.07;;;1.07;;
17814;SDS011;9031;50.974;11.330;2023-01-16T06:00:10;0.80;;;0.80;;
17814;SDS011;9031;50.974;11.330;2023-01-16T06:02:36;1.10;;;1.10;;
17814;SDS011;9031;50.974;11.330;2023-01-16T06:05:02;0.97;;;0.97;;
17814;SDS011;9031;50.974;11.330;2023-01-16T06:07:28;1.13;;;1.13;;
17814;SDS011;9031;50.974;11.330;2023-01-16T06:09:54;0.90;;;0.90;;
17814;SDS011;9031;50.974;11.330;2023-01-16T06:12:19;0.90;;;0.90;;
17814;SDS011;9031;50.974;11.330;2023-01-16T06:14:45;0.80;;;0.80;;
17814;SDS011;9031;50.974;11.330;2023-01-16T06:17:11;1.10;;;1.10;;
17814;SDS011;9031;50.974;11.330;2023-01-16T06:19:41;0.93;;;0.93;;
17814;SDS011;9031;50.974;11.330;2023-01-16T06:22:07;0.90;;;0.90;;
17814;SDS011;9031;50.974;11.330;2023-01-16T06:24:32;1.30;;;1.30;;
17814;SDS011;9031;50.974;11.330;2023-01-16T06:26:58;1.00;;;1.00;;
17814;SDS011;9031;50.974;11.330;2023-01-16T06:29:24;0.80;;;0.80;;
17814;SDS011;9031;50.974;11.330;2023-01-16T06:31:49;1.10;;;1.10;;
17814;SDS011;9031;50.974;11.330;2023-01-16T06:34:15;1.10;;;1.10;;
17814;SDS011;9031;50.974;11.330;2023-01-16T06:36:40;1.10;;;1.10;;
17814;SDS011;9031;50.974;11.330;2023-01-16T06:39:06;0.90;;;0.90;;
17814;SDS011;9031;50.974;11.330;2023-01-16T06:41:32;0.80;;;0.80;;
17814;SDS011;9031;50.974;11.330;2023-01-16T06:43:58;1.00;;;1.00;;
17814;SDS011;9031;50.974;11.330;2023-01-16T06:46:24;1.00;;;1.00;;
17814;SDS011;9031;50.974;11.330;2023-01-16T06:48:49;1.17;;;1.17;;
17814;SDS011;9031;50.974;11.330;2023-01-16T06:51:15;1.10;;;1.10;;
17814;SDS011;9031;50.974;11.330;2023-01-16T06:53:40;0.90;;;0.90;;
17814;SDS011;9031;50.974;11.330;2023-01-16T06:56:06;0.90;;;0.90;;
17814;SDS011;9031;50.974;11.330;2023-01-16T06:58:31;1.13;;;1.13;;
17814;SDS011;9031;50.974;11.330;2023-01-16T07:00:57;1.17;;;1.17;;
17814;SDS011;9031;50.974;11.330;2023-01-16T07:03:22;1.13;;;1.13;;
17814;SDS011;9031;50.974;11.330;2023-01-16T07:05:49;1.00;;;1.00;;
17814;SDS011;9031;50.974;11.330;2023-01-16T07:08:15;1.20;;;1.20;;
17814;SDS011;9031;50.974;11.330;2023-01-16T07:10:41;0.90;;;0.90;;
17814;SDS011;9031;50.974;11.330;2023-01-16T07:13:06;1.00;;;1.00;;
17814;SDS011;9031;50.974;11.330;2023-01-16T07:15:32;1.00;;;1.00;;
17814;SDS011;9031;50.974;11.330;2023-01-16T07:18:16;1.00;;;1.00;;
17814;SDS011;9031;50.974;11.330;2023-01-16T07:21:02;2.43;;;2.43;;
17814;SDS011;9031;50.974;11.330;2023-01-16T07:23:56;1.20;;;1.20;;
17814;SDS011;9031;50.974;11.330;2023-01-16T07:26:25;1.10;;;1.10;;
17814;SDS011;9031;50.974;11.330;2023-01-16T07:28:52;1.13;;;1.13;;
17814;SDS011;9031;50.974;11.330;2023-01-16T07:31:19;1.13;;;1.13;;
17814;SDS011;9031;50.974;11.330;2023-01-16T07:33:45;1.10;;;1.10;;
17814;SDS011;9031;50.974;11.330;2023-01-16T07:36:11;0.90;;;0.90;;
17814;SDS011;9031;50.974;11.330;2023-01-16T07:38:37;1.07;;;1.07;;
17814;SDS011;9031;50.974;11.330;2023-01-16T07:41:02;3.00;;;2.90;;
17814;SDS011;9031;50.974;11.330;2023-01-16T07:43:28;2.80;;;2.70;;
17814;SDS011;9031;50.974;11.330;2023-01-16T07:45:53;3.00;;;2.90;;
17814;SDS011;9031;50.974;11.330;2023-01-16T07:48:19;1.60;;;1.60;;
17814;SDS011;9031;50.974;11.330;2023-01-16T07:50:52;1.47;;;1.47;;
17814;SDS011;9031;50.974;11.330;2023-01-16T07:53:20;2.57;;;2.50;;
17814;SDS011;9031;50.974;11.330;2023-01-16T07:55:51;0.90;;;0.90;;
17814;SDS011;9031;50.974;11.330;2023-01-16T07:58:18;1.30;;;1.30;;
17814;SDS011;9031;50.974;11.330;2023-01-16T08:00:44;1.00;;;1.00;;
17814;SDS011;9031;50.974;11.330;2023-01-16T08:03:10;1.10;;;1.10;;
17814;SDS011;9031;50.974;11.330;2023-01-16T08:05:36;1.10;;;1.10;;
17814;SDS011;9031;50.974;11.330;2023-01-16T08:08:02;1.80;;;1.80;;
17814;SDS011;9031;50.974;11.330;2023-01-16T08:10:28;1.43;;;1.43;;
17814;SDS011;9031;50.974;11.330;2023-01-16T08:12:54;0.90;;;0.90;;
17814;SDS011;9031;50.974;11.330;2023-01-16T08:15:19;1.10;;;1.10;;
17814;SDS011;9031;50.974;11.330;2023-01-16T08:17:45;1.20;;;1.20;;
17814;SDS011;9031;50.974;11.330;2023-01-16T08:20:10;1.10;;;1.10;;
17814;SDS011;9031;50.974;11.330;2023-01-16T08:22:46;0.90;;;0.90;;
17814;SDS011;9031;50.974;11.330;2023-01-16T08:25:15;0.93;;;0.93;;
17814;SDS011;9031;50.974;11.330;2023-01-16T08:27:41;1.47;;;1.47;;
17814;SDS011;9031;50.974;11.330;2023-01-16T08:30:08;0.93;;;0.93;;
17814;SDS011;9031;50.974;11.330;2023-01-16T08:32:34;0.90;;;0.90;;
17814;SDS011;9031;50.974;11.330;2023-01-16T08:35:00;1.00;;;1.00;;
17814;SDS011;9031;50.974;11.330;2023-01-16T08:37:28;0.83;;;0.83;;
17814;SDS011;9031;50.974;11.330;2023-01-16T08:39:54;0.70;;;0.70;;
17814;SDS011;9031;50.974;11.330;2023-01-16T08:42:20;0.83;;;0.83;;
17814;SDS011;9031;50.974;11.330;2023-01-16T08:45:04;0.70;;;0.70;;
17814;SDS011;9031;50.974;11.330;2023-01-16T08:47:48;0.80;;;0.80;;
17814;SDS011;9031;50.974;11.330;2023-01-16T08:50:32;0.90;;;0.90;;
17814;SDS011;9031;50.974;11.330;2023-01-16T08:53:16;0.90;;;0.90;;
17814;SDS011;9031;50.974;11.330;2023-01-16T08:55:42;0.80;;;0.80;;
17814;SDS011;9031;50.974;11.330;2023-01-16T08:58:07;0.90;;;0.90;;
17814;SDS011;9031;50.974;11.330;2023-01-16T09:00:33;0.70;;;0.70;;
17814;SDS011;9031;50.974;11.330;2023-01-16T09:02:59;0.93;;;0.93;;
17814;SDS011;9031;50.974;11.330;2023-01-16T09:05:26;0.63;;;0.63;;
17814;SDS011;9031;50.974;11.330;2023-01-16T09:07:52;1.90;;;1.80;;
17814;SDS011;9031;50.974;11.330;2023-01-16T09:10:17;0.70;;;0.70;;
17814;SDS011;9031;50.974;11.330;2023-01-16T09:12:43;0.60;;;0.60;;
17814;SDS011;9031;50.974;11.330;2023-01-16T09:15:27;0.80;;;0.80;;
17814;SDS011;9031;50.974;11.330;2023-01-16T09:17:54;0.70;;;0.70;;
17814;SDS011;9031;50.974;11.330;2023-01-16T09:20:20;0.70;;;0.70;;
17814;SDS011;9031;50.974;11.330;2023-01-16T09:22:45;0.87;;;0.87;;
17814;SDS011;9031;50.974;11.330;2023-01-16T09:25:11;0.60;;;0.60;;
17814;SDS011;9031;50.974;11.330;2023-01-16T09:27:36;0.70;;;0.70;;
17814;SDS011;9031;50.974;11.330;2023-01-16T09:30:02;0.70;;;0.70;;
17814;SDS011;9031;50.974;11.330;2023-01-16T09:32:28;1.23;;;1.23;;
17814;SDS011;9031;50.974;11.330;2023-01-16T09:34:54;0.80;;;0.80;;
17814;SDS011;9031;50.974;11.330;2023-01-16T09:37:19;0.60;;;0.60;;
17814;SDS011;9031;50.974;11.330;2023-01-16T09:39:45;2.67;;;2.67;;
17814;SDS011;9031;50.974;11.330;2023-01-16T09:44:56;1.97;;;1.97;;
17814;SDS011;9031;50.974;11.330;2023-01-16T09:47:43;1.70;;;1.70;;
17814;SDS011;9031;50.974;11.330;2023-01-16T09:50:15;1.60;;;1.60;;
17814;SDS011;9031;50.974;11.330;2023-01-16T09:52:55;1.83;;;1.83;;
17814;SDS011;9031;50.974;11.330;2023-01-16T09:55:42;0.70;;;0.70;;
17814;SDS011;9031;50.974;11.330;2023-01-16T09:58:29;2.73;;;2.67;;
17814;SDS011;9031;50.974;11.330;2023-01-16T10:03:31;1.97;;;1.97;;
17814;SDS011;9031;50.974;11.330;2023-01-16T10:06:11;0.97;;;0.97;;
17814;SDS011;9031;50.974;11.330;2023-01-16T10:17:53;0.70;;;0.70;;
17814;SDS011;9031;50.974;11.330;2023-01-16T10:26:23;0.60;;;0.60;;
17814;SDS011;9031;50.974;11.330;2023-01-16T10:36:43;0.50;;;0.50;;
17814;SDS011;9031;50.974;11.330;2023-01-16T10:39:12;0.60;;;0.60;;
17814;SDS011;9031;50.974;11.330;2023-01-16T10:41:44;0.47;;;0.47;;
17814;SDS011;9031;50.974;11.330;2023-01-16T10:44:33;0.60;;;0.60;;
17814;SDS011;9031;50.974;11.330;2023-01-16T10:47:22;0.50;;;0.50;;
17814;SDS011;9031;50.974;11.330;2023-01-16T10:50:07;0.40;;;0.40;;
17814;SDS011;9031;50.974;11.330;2023-01-16T10:52:34;0.50;;;0.50;;
17814;SDS011;9031;50.974;11.330;2023-01-16T10:55:00;0.50;;;0.50;;
17814;SDS011;9031;50.974;11.330;2023-01-16T10:57:27;0.60;;;0.60;;
17814;SDS011;9031;50.974;11.330;2023-01-16T10:59:55;0.50;;;0.50;;
17814;SDS011;9031;50.974;11.330;2023-01-16T11:02:30;0.40;;;0.40;;
17814;SDS011;9031;50.974;11.330;2023-01-16T11:05:01;0.50;;;0.50;;
17814;SDS011;9031;50.974;11.330;2023-01-16T11:07:45;0.60;;;0.60;;
17814;SDS011;9031;50.974;11.330;2023-01-16T11:10:15;0.60;;;0.60;;
17814;SDS011;9031;50.974;11.330;2023-01-16T11:12:40;0.60;;;0.60;;
17814;SDS011;9031;50.974;11.330;2023-01-16T11:15:25;0.37;;;0.37;;
17814;SDS011;9031;50.974;11.330;2023-01-16T11:20:53;0.57;;;0.57;;
17814;SDS011;9031;50.974;11.330;2023-01-16T11:23:23;0.50;;;0.50;;
17814;SDS011;9031;50.974;11.330;2023-01-16T11:26:00;0.50;;;0.50;;
17814;SDS011;9031;50.974;11.330;2023-01-16T11:28:27;0.50;;;0.50;;
17814;SDS011;9031;50.974;11.330;2023-01-16T11:30:55;0.57;;;0.57;;
17814;SDS011;9031;50.974;11.330;2023-01-16T11:33:25;0.50;;;0.50;;
17814;SDS011;9031;50.974;11.330;2023-01-16T11:35:58;0.50;;;0.50;;
17814;SDS011;9031;50.974;11.330;2023-01-16T11:38:27;0.40;;;0.40;;
17814;SDS011;9031;50.974;11.330;2023-01-16T11:40:55;0.40;;;0.40;;
17814;SDS011;9031;50.974;11.330;2023-01-16T11:43:23;0.33;;;0.33;;
17814;SDS011;9031;50.974;11.330;2023-01-16T11:46:20;0.40;;;0.40;;
17814;SDS011;9031;50.974;11.330;2023-01-16T11:49:05;0.30;;;0.30;;
17814;SDS011;9031;50.974;11.330;2023-01-16T11:51:51;0.40;;;0.40;;
17814;SDS011;9031;50.974;11.330;2023-01-16T11:54:19;0.40;;;0.40;;
17814;SDS011;9031;50.974;11.330;2023-01-16T11:56:58;0.30;;;0.30;;
17814;SDS011;9031;50.974;11.330;2023-01-16T12:05:14;0.40;;;0.40;;
17814;SDS011;9031;50.974;11.330;2023-01-16T12:11:01;0.53;;;0.53;;
17814;SDS011;9031;50.974;11.330;2023-01-16T12:13:49;0.50;;;0.50;;
17814;SDS011;9031;50.974;11.330;2023-01-16T12:16:46;0.40;;;0.40;;
17814;SDS011;9031;50.974;11.330;2023-01-16T12:20:18;0.30;;;0.30;;
17814;SDS011;9031;50.974;11.330;2023-01-16T12:22:26;0.30;;;0.30;;
17814;SDS011;9031;50.974;11.330;2023-01-16T12:25:35;0.40;;;0.40;;
17814;SDS011;9031;50.974;11.330;2023-01-16T12:33:53;0.37;;;0.37;;
17814;SDS011;9031;50.974;11.330;2023-01-16T12:39:40;0.40;;;0.40;;
17814;SDS011;9031;50.974;11.330;2023-01-16T12:42:10;0.40;;;0.40;;
17814;SDS011;9031;50.974;11.330;2023-01-16T12:47:44;0.40;;;0.40;;
17814;SDS011;9031;50.974;11.330;2023-01-16T12:53:37;0.50;;;0.50;;
17814;SDS011;9031;50.974;11.330;2023-01-16T12:56:17;0.40;;;0.40;;
17814;SDS011;9031;50.974;11.330;2023-01-16T12:59:02;0.40;;;0.40;;
17814;SDS011;9031;50.974;11.330;2023-01-16T13:01:36;0.73;;;0.73;;
17814;SDS011;9031;50.974;11.330;2023-01-16T13:04:09;0.40;;;0.40;;
17814;SDS011;9031;50.974;11.330;2023-01-16T13:06:48;0.40;;;0.40;;
17814;SDS011;9031;50.974;11.330;2023-01-16T13:09:18;0.40;;;0.40;;
17814;SDS011;9031;50.974;11.330;2023-01-16T13:11:55;0.40;;;0.40;;
17814;SDS011;9031;50.974;11.330;2023-01-16T13:14:43;0.40;;;0.40;;
17814;SDS011;9031;50.974;11.330;2023-01-16T13:17:14;0.40;;;0.40;;
17814;SDS011;9031;50.974;11.330;2023-01-16T13:19:44;0.40;;;0.40;;
17814;SDS011;9031;50.974;11.330;2023-01-16T13:22:21;0.40;;;0.40;;
17814;SDS011;9031;50.974;11.330;2023-01-16T13:27:39;0.33;;;0.33;;
17814;SDS011;9031;50.974;11.330;2023-01-16T13:30:09;0.40;;;0.40;;
17814;SDS011;9031;50.974;11.330;2023-01-16T13:32:50;0.30;;;0.30;;
17814;SDS011;9031;50.974;11.330;2023-01-16T13:35:25;0.30;;;0.30;;
17814;SDS011;9031;50.974;11.330;2023-01-16T13:41:10;0.30;;;0.30;;
17814;SDS011;9031;50.974;11.330;2023-01-16T13:44:05;0.40;;;0.40;;
17814;SDS011;9031;50.974;11.330;2023-01-16T13:46:50;1.17;;;1.07;;
17814;SDS011;9031;50.974;11.330;2023-01-16T13:49:22;0.40;;;0.40;;
17814;SDS011;9031;50.974;11.330;2023-01-16T13:51:50;0.40;;;0.40;;
17814;SDS011;9031;50.974;11.330;2023-01-16T13:54:24;0.37;;;0.37;;
17814;SDS011;9031;50.974;11.330;2023-01-16T13:57:01;0.30;;;0.30;;
17814;SDS011;9031;50.974;11.330;2023-01-16T14:02:38;0.40;;;0.40;;
17814;SDS011;9031;50.974;11.330;2023-01-16T14:08:03;0.43;;;0.43;;
17814;SDS011;9031;50.974;11.330;2023-01-16T14:13:24;0.40;;;0.40;;
17814;SDS011;9031;50.974;11.330;2023-01-16T14:16:00;0.40;;;0.40;;
17814;SDS011;9031;50.974;11.330;2023-01-16T14:24:09;0.60;;;0.60;;
17814;SDS011;9031;50.974;11.330;2023-01-16T14:26:50;0.50;;;0.50;;
17814;SDS011;9031;50.974;11.330;2023-01-16T14:29:30;0.60;;;0.60;;
17814;SDS011;9031;50.974;11.330;2023-01-16T14:32:04;0.50;;;0.50;;
17814;SDS011;9031;50.974;11.330;2023-01-16T14:37:22;0.47;;;0.47;;
17814;SDS011;9031;50.974;11.330;2023-01-16T14:39:55;0.40;;;0.40;;
17814;SDS011;9031;50.974;11.330;2023-01-16T14:42:27;0.40;;;0.40;;
17814;SDS011;9031;50.974;11.330;2023-01-16T14:45:26;0.60;;;0.60;;
17814;SDS011;9031;50.974;11.330;2023-01-16T14:54:32;0.43;;;0.43;;
17814;SDS011;9031;50.974;11.330;2023-01-16T14:57:12;0.53;;;0.53;;
17814;SDS011;9031;50.974;11.330;2023-01-16T15:00:26;0.60;;;0.60;;
17814;SDS011;9031;50.974;11.330;2023-01-16T15:07:35;0.40;;;0.40;;
17814;SDS011;9031;50.974;11.330;2023-01-16T15:10:03;0.50;;;0.50;;
17814;SDS011;9031;50.974;11.330;2023-01-16T15:12:38;0.43;;;0.43;;
17814;SDS011;9031;50.974;11.330;2023-01-16T15:15:05;0.60;;;0.60;;
17814;SDS011;9031;50.974;11.330;2023-01-16T15:17:52;0.60;;;0.60;;
17814;SDS011;9031;50.974;11.330;2023-01-16T15:20:39;0.50;;;0.50;;
17814;SDS011;9031;50.974;11.330;2023-01-16T15:23:26;0.67;;;0.67;;
17814;SDS011;9031;50.974;11.330;2023-01-16T15:29:24;0.60;;;0.60;;
17814;SDS011;9031;50.974;11.330;2023-01-16T15:32:11;0.67;;;0.67;;
17814;SDS011;9031;50.974;11.330;2023-01-16T15:34:47;0.50;;;0.50;;
17814;SDS011;9031;50.974;11.330;2023-01-16T15:37:20;0.57;;;0.57;;
17814;SDS011;9031;50.974;11.330;2023-01-16T15:39:52;0.50;;;0.50;;
17814;SDS011;9031;50.974;11.330;2023-01-16T15:42:21;0.80;;;0.80;;
17814;SDS011;9031;50.974;11.330;2023-01-16T15:45:28;0.50;;;0.50;;
17814;SDS011;9031;50.974;11.330;2023-01-16T15:48:21;0.60;;;0.60;;
17814;SDS011;9031;50.974;11.330;2023-01-16T15:51:00;0.60;;;0.60;;
17814;SDS011;9031;50.974;11.330;2023-01-16T15:53:36;0.50;;;0.50;;
17814;SDS011;9031;50.974;11.330;2023-01-16T15:56:07;0.70;;;0.70;;
17814;SDS011;9031;50.974;11.330;2023-01-16T15:58:41;0.60;;;0.60;;
17814;SDS011;9031;50.974;11.330;2023-01-16T16:01:07;0.83;;;0.83;;
17814;SDS011;9031;50.974;11.330;2023-01-16T16:03:41;0.70;;;0.70;;
17814;SDS011;9031;50.974;11.330;2023-01-16T16:06:11;0.60;;;0.60;;
17814;SDS011;9031;50.974;11.330;2023-01-16T16:08:45;0.57;;;0.57;;
17814;SDS011;9031;50.974;11.330;2023-01-16T16:11:19;0.53;;;0.53;;
17814;SDS011;9031;50.974;11.330;2023-01-16T16:14:05;0.73;;;0.73;;
17814;SDS011;9031;50.974;11.330;2023-01-16T16:17:01;0.67;;;0.67;;
17814;SDS011;9031;50.974;11.330;2023-01-16T16:19:48;0.70;;;0.70;;
17814;SDS011;9031;50.974;11.330;2023-01-16T16:22:16;0.70;;;0.70;;
17814;SDS011;9031;50.974;11.330;2023-01-16T16:25:08;0.73;;;0.73;;
17814;SDS011;9031;50.974;11.330;2023-01-16T16:27:42;0.50;;;0.50;;
17814;SDS011;9031;50.974;11.330;2023-01-16T16:30:13;0.80;;;0.80;;
17814;SDS011;9031;50.974;11.330;2023-01-16T16:32:51;0.90;;;0.90;;
17814;SDS011;9031;50.974;11.330;2023-01-16T16:35:23;0.80;;;0.80;;
17814;SDS011;9031;50.974;11.330;2023-01-16T16:37:53;0.67;;;0.67;;
17814;SDS011;9031;50.974;11.330;2023-01-16T16:40:19;0.80;;;0.80;;
17814;SDS011;9031;50.974;11.330;2023-01-16T16:45:22;0.70;;;0.70;;
17814;SDS011;9031;50.974;11.330;2023-01-16T16:51:14;0.63;;;0.63;;
17814;SDS011;9031;50.974;11.330;2023-01-16T16:53:46;0.70;;;0.70;;
17814;SDS011;9031;50.974;11.330;2023-01-16T16:56:18;0.73;;;0.73;;
17814;SDS011;9031;50.974;11.330;2023-01-16T16:58:48;0.60;;;0.60;;
17814;SDS011;9031;50.974;11.330;2023-01-16T17:01:16;0.80;;;0.80;;
17814;SDS011;9031;50.974;11.330;2023-01-16T17:03:45;0.70;;;0.70;;
17814;SDS011;9031;50.974;11.330;2023-01-16T17:06:14;0.90;;;0.90;;
17814;SDS011;9031;50.974;11.330;2023-01-16T17:08:45;0.80;;;0.80;;
17814;SDS011;9031;50.974;11.330;2023-01-16T17:11:11;0.80;;;0.80;;
17814;SDS011;9031;50.974;11.330;2023-01-16T17:13:38;0.70;;;0.70;;
17814;SDS011;9031;50.974;11.330;2023-01-16T17:16:04;0.80;;;0.80;;
17814;SDS011;9031;50.974;11.330;2023-01-16T17:18:37;0.80;;;0.80;;
17814;SDS011;9031;50.974;11.330;2023-01-16T17:21:03;0.67;;;0.67;;
17814;SDS011;9031;50.974;11.330;2023-01-16T17:23:29;0.73;;;0.73;;